Time;durP1;ratioP1;P1;durP2;ratioP2;P2;SDS_P1;SDS_P2;PMS_P1;PMS_P2;Temp;Humidity;BMP_temperature;BMP_pressure;BME280_temperature;BME280_humidity;BME280_pressure;Samples;Min_cycle;Max_cycle;Signal;HPM_P1;HPM_P2
2021/08/15 00:03:59;;;;;;;11.45;7.68;;;;;;;21.50;89.17;96340.09;5243280;56;20117;-74
2021/08/15 00:09:02;;;;;;;12.65;7.32;;;;;;;21.58;88.61;96335.38;5243032;56;20121;-74
2021/08/15 00:14:05;;;;;;;10.70;7.50;;;;;;;21.41;89.55;96332.81;5243317;56;20139;-74
2021/08/15 00:19:07;;;;;;;10.45;7.78;;;;;;;21.42;90.02;96334.34;5242898;56;20590;-75
2021/08/15 00:24:09;;;;;;;10.02;7.60;;;;;;;21.34;90.20;96325.00;5243277;56;20112;-75
2021/08/15 00:29:12;;;;;;;10.43;7.70;;;;;;;21.18;90.80;96326.00;5242743;56;20121;-74
2021/08/15 00:34:14;;;;;;;11.75;7.97;;;;;;;21.15;91.11;96323.50;5242736;56;20696;-74
2021/08/15 00:39:16;;;;;;;10.43;7.47;;;;;;;21.26;90.41;96321.28;5242914;56;20125;-74
2021/08/15 00:44:19;;;;;;;9.98;7.65;;;;;;;21.40;89.93;96317.25;5242923;56;20149;-75
2021/08/15 00:49:22;;;;;;;12.70;7.47;;;;;;;21.27;90.38;96311.56;5242732;56;20125;-74
2021/08/15 00:54:24;;;;;;;9.38;7.05;;;;;;;21.12;90.87;96304.91;5242092;56;20240;-74
2021/08/15 00:59:27;;;;;;;7.13;6.38;;;;;;;21.09;91.08;96300.34;5242253;56;20134;-73
2021/08/15 01:04:29;;;;;;;7.88;7.07;;;;;;;21.20;90.53;96303.75;5242315;56;20784;-75
2021/08/15 01:09:32;;;;;;;10.32;6.13;;;;;;;21.10;90.07;96302.59;5242131;56;20636;-74
2021/08/15 01:14:35;;;;;;;13.98;7.97;;;;;;;21.07;90.77;96306.50;5242081;56;20611;-74
2021/08/15 01:19:38;;;;;;;11.30;8.43;;;;;;;20.93;90.83;96304.13;5242052;56;20121;-74
2021/08/15 01:24:40;;;;;;;12.07;7.80;;;;;;;20.87;91.07;96295.00;5241860;56;20666;-74
2021/08/15 01:29:58;;;;;;;8.90;7.68;;;;;;;20.95;91.12;96293.88;5242598;56;20130;-74
2021/08/15 01:35:02;;;;;;;11.95;7.90;;;;;;;20.89;90.81;96290.38;5241787;56;20662;-74
2021/08/15 01:40:07;;;;;;;11.93;7.78;;;;;;;20.69;91.36;96288.09;5241970;56;20134;-74
2021/08/15 01:45:11;;;;;;;11.75;8.25;;;;;;;20.64;92.25;96297.34;5241445;56;20135;-74
2021/08/15 01:50:13;;;;;;;9.82;7.80;;;;;;;20.58;92.44;96291.78;5241726;56;20126;-74
2021/08/15 01:55:16;;;;;;;10.23;8.25;;;;;;;20.64;91.90;96284.09;5232505;56;20617;-74
2021/08/15 02:00:18;;;;;;;16.55;8.55;;;;;;;20.61;91.78;96284.38;5232640;56;20117;-74
2021/08/15 02:05:20;;;;;;;10.57;8.10;;;;;;;20.56;92.06;96285.94;5240812;56;20693;-74
2021/08/15 02:10:27;;;;;;;10.52;7.10;;;;;;;20.47;92.50;96282.75;5241245;56;20558;-75
2021/08/15 02:15:31;;;;;;;11.50;8.30;;;;;;;20.45;91.95;96286.09;5240971;56;20125;-75
2021/08/15 02:20:35;;;;;;;11.40;9.05;;;;;;;20.43;91.83;96285.09;5241555;56;20153;-74
2021/08/15 02:25:37;;;;;;;12.40;9.38;;;;;;;20.36;92.60;96296.91;5240935;56;20139;-74
2021/08/15 02:30:40;;;;;;;14.50;9.43;;;;;;;20.41;91.95;96298.91;5232433;56;20143;-74
2021/08/15 02:35:43;;;;;;;10.95;9.18;;;;;;;20.33;91.80;96295.19;5240704;56;20126;-74
2021/08/15 02:40:45;;;;;;;13.93;9.15;;;;;;;20.20;92.94;96289.41;5240999;56;20139;-74
2021/08/15 02:45:47;;;;;;;14.02;8.93;;;;;;;20.20;92.76;96283.81;5240663;56;20178;-74
2021/08/15 02:50:50;;;;;;;11.35;9.02;;;;;;;20.09;92.69;96290.31;5240779;56;20135;-75
2021/08/15 02:55:52;;;;;;;12.23;9.02;;;;;;;20.25;92.58;96285.81;5240450;56;20698;-75
2021/08/15 03:00:55;;;;;;;16.70;9.85;;;;;;;20.08;94.01;96285.22;5240655;56;20582;-73
2021/08/15 03:05:57;;;;;;;14.98;10.40;;;;;;;20.13;95.26;96273.94;5240342;56;20139;-74
2021/08/15 03:10:59;;;;;;;15.40;9.73;;;;;;;20.11;93.75;96275.75;5231612;56;20118;-74
2021/08/15 03:16:02;;;;;;;14.80;9.85;;;;;;;20.12;93.13;96275.25;5240152;56;20144;-74
2021/08/15 03:21:04;;;;;;;11.30;9.07;;;;;;;20.00;93.30;96271.78;5243446;56;20125;-74
2021/08/15 03:26:07;;;;;;;11.13;8.63;;;;;;;19.96;92.85;96273.38;5243518;56;20130;-74
2021/08/15 03:31:09;;;;;;;15.77;9.50;;;;;;;19.98;92.64;96279.97;5243752;56;20139;-74
2021/08/15 03:36:12;;;;;;;10.90;8.65;;;;;;;19.95;92.18;96281.00;5243160;56;20662;-74
2021/08/15 03:41:14;;;;;;;9.75;8.63;;;;;;;19.78;92.70;96272.03;5243549;56;20164;-74
2021/08/15 03:46:16;;;;;;;12.40;8.93;;;;;;;19.80;93.28;96263.84;5243345;56;20161;-74
2021/08/15 03:51:19;;;;;;;11.52;9.05;;;;;;;19.89;92.92;96271.13;5243402;56;20147;-74
2021/08/15 03:56:21;;;;;;;11.73;9.45;;;;;;;19.80;93.04;96269.44;5243030;56;20125;-74
2021/08/15 04:01:23;;;;;;;10.45;7.60;;;;;;;19.84;92.90;96269.16;5243176;56;20126;-74
2021/08/15 04:06:27;;;;;;;8.73;7.40;;;;;;;19.78;92.89;96271.25;5242957;56;20586;-74
2021/08/15 04:11:30;;;;;;;13.15;8.48;;;;;;;19.80;92.58;96271.50;5243145;56;20665;-74
2021/08/15 04:16:32;;;;;;;8.63;6.82;;;;;;;19.78;93.30;96262.84;5243128;56;20139;-74
2021/08/15 04:21:34;;;;;;;7.82;6.53;;;;;;;19.74;92.52;96273.59;5243246;56;20113;-74
2021/08/15 04:26:37;;;;;;;9.65;6.78;;;;;;;19.72;91.79;96268.50;5242647;56;20137;-74
2021/08/15 04:31:43;;;;;;;9.57;7.80;;;;;;;19.77;92.19;96270.50;5242834;56;20129;-73
2021/08/15 04:36:45;;;;;;;15.00;9.32;;;;;;;19.68;94.18;96265.22;5245241;56;20184;-74
2021/08/15 04:41:48;;;;;;;16.02;10.75;;;;;;;19.86;95.40;96266.56;5266846;56;20121;-74
2021/08/15 04:46:50;;;;;;;13.68;11.27;;;;;;;20.06;94.84;96262.56;5256902;56;20616;-74
2021/08/15 04:51:54;;;;;;;19.38;12.13;;;;;;;20.22;94.46;96268.00;5243091;56;20117;-75
2021/08/15 04:56:58;;;;;;;15.60;11.65;;;;;;;20.36;96.00;96260.44;5242435;56;20612;-75
2021/08/15 05:02:03;;;;;;;14.18;11.20;;;;;;;20.51;95.17;96266.38;5242751;56;20236;-74
2021/08/15 05:07:05;;;;;;;15.73;12.27;;;;;;;20.65;93.93;96260.31;5242471;56;20210;-75
2021/08/15 05:12:08;;;;;;;18.33;11.43;;;;;;;20.86;93.83;96265.41;5242131;56;20130;-75
2021/08/15 05:17:10;;;;;;;18.70;12.98;;;;;;;21.09;94.62;96278.63;5241971;56;20157;-75
2021/08/15 05:22:12;;;;;;;14.93;11.57;;;;;;;21.27;94.13;96285.50;5241968;56;20666;-74
2021/08/15 05:27:14;;;;;;;17.05;11.20;;;;;;;21.48;93.03;96280.84;5232931;56;20595;-75
2021/08/15 05:32:17;;;;;;;16.48;11.18;;;;;;;21.63;92.04;96289.53;5242004;56;20117;-75
2021/08/15 05:37:19;;;;;;;16.67;11.52;;;;;;;21.78;91.89;96286.94;5233033;56;20130;-74
2021/08/15 05:42:21;;;;;;;14.80;10.98;;;;;;;21.91;91.70;96289.09;5241796;56;20131;-74
2021/08/15 05:47:24;;;;;;;17.65;12.25;;;;;;;22.08;90.57;96295.16;5241459;56;20117;-75
2021/08/15 05:52:27;;;;;;;21.48;12.13;;;;;;;22.32;89.38;96286.50;5242108;56;20131;-75
2021/08/15 05:57:29;;;;;;;19.70;11.98;;;;;;;22.21;88.43;96289.53;5241521;56;20554;-76
2021/08/15 06:02:31;;;;;;;16.88;11.57;;;;;;;22.43;88.06;96291.94;5241596;56;20662;-76
2021/08/15 06:07:34;;;;;;;16.08;11.00;;;;;;;22.55;86.75;96284.75;5241267;56;20594;-75
2021/08/15 06:12:38;;;;;;;16.83;11.40;;;;;;;22.65;85.87;96290.75;5241474;56;20126;-76
2021/08/15 06:17:42;;;;;;;19.65;12.55;;;;;;;22.81;85.42;96287.56;5241107;56;20138;-76
2021/08/15 06:22:46;;;;;;;15.18;11.27;;;;;;;22.99;85.70;96293.59;5241201;56;20554;-75
2021/08/15 06:27:49;;;;;;;14.38;10.95;;;;;;;23.11;84.14;96300.50;5241054;56;20121;-76
2021/08/15 06:32:54;;;;;;;17.05;10.93;;;;;;;23.44;83.93;96294.13;5241019;56;20560;-76
2021/08/15 06:37:57;;;;;;;20.75;11.30;;;;;;;23.66;82.30;96296.41;5241135;56;20204;-76
2021/08/15 06:43:08;;;;;;;13.07;11.00;;;;;;;23.79;80.48;96296.31;5240910;56;20741;-76
2021/08/15 06:48:10;;;;;;;12.23;10.93;;;;;;;23.97;80.20;96295.34;5231834;56;20112;-75
2021/08/15 06:53:12;;;;;;;15.38;10.77;;;;;;;24.13;80.40;96282.88;5231461;56;20143;-75
2021/08/15 06:58:16;;;;;;;14.82;10.07;;;;;;;24.42;78.83;96291.38;5240615;56;20153;-77
2021/08/15 07:03:18;;;;;;;16.70;10.52;;;;;;;24.59;77.43;96289.56;5231908;56;20630;-75
2021/08/15 07:08:23;;;;;;;14.20;9.82;;;;;;;24.73;76.66;96290.22;5240348;56;20131;-76
2021/08/15 07:13:25;;;;;;;15.68;10.18;;;;;;;24.94;74.98;96286.00;5240873;56;20117;-76
2021/08/15 07:18:29;;;;;;;14.00;9.80;;;;;;;25.02;73.61;96282.44;5240307;56;20634;-76
2021/08/15 07:23:31;;;;;;;16.90;9.88;;;;;;;25.26;74.14;96282.69;5240047;56;20117;-76
2021/08/15 07:28:33;;;;;;;19.05;9.73;;;;;;;25.42;72.46;96286.34;5240419;56;20135;-76
2021/08/15 07:33:36;;;;;;;13.15;8.60;;;;;;;25.66;69.81;96282.25;5240153;56;20122;-75
2021/08/15 07:38:39;;;;;;;14.27;8.60;;;;;;;25.95;69.29;96287.16;5240354;56;20147;-76
2021/08/15 07:43:42;;;;;;;9.18;6.20;;;;;;;26.18;62.49;96285.13;5231134;56;20595;-76
2021/08/15 07:48:44;;;;;;;8.02;6.70;;;;;;;26.41;63.41;96282.25;5239843;56;20131;-77
2021/08/15 07:53:46;;;;;;;7.22;6.15;;;;;;;26.88;62.62;96276.66;5239892;56;20649;-76
2021/08/15 07:58:49;;;;;;;9.48;6.63;;;;;;;26.59;62.11;96283.16;5239870;56;20139;-76
2021/08/15 08:03:51;;;;;;;8.80;6.57;;;;;;;27.07;60.46;96275.44;5238862;56;20113;-76
2021/08/15 08:08:54;;;;;;;7.85;6.18;;;;;;;27.23;56.22;96282.56;5242824;56;20662;-76
2021/08/15 08:13:56;;;;;;;8.15;5.88;;;;;;;27.21;59.32;96276.69;5243550;56;20126;-77
2021/08/15 08:18:59;;;;;;;6.60;5.68;;;;;;;27.86;58.13;96266.84;5242842;56;20143;-76
2021/08/15 08:24:04;;;;;;;8.20;5.95;;;;;;;29.07;51.79;96269.25;5242660;56;20113;-77
2021/08/15 08:29:06;;;;;;;7.03;5.80;;;;;;;29.99;50.55;96254.50;5242446;56;20117;-76
2021/08/15 08:34:09;;;;;;;6.43;5.75;;;;;;;29.50;49.44;96262.03;5242768;56;20129;-77
2021/08/15 08:39:11;;;;;;;10.40;5.85;;;;;;;30.47;50.46;96249.66;5241444;56;20677;-77
2021/08/15 08:44:16;;;;;;;7.88;5.25;;;;;;;31.13;47.75;96248.19;5246739;56;20210;-76
2021/08/15 08:49:19;;;;;;;7.80;6.15;;;;;;;30.65;47.61;96241.69;5241670;56;20130;-77
2021/08/15 08:54:22;;;;;;;8.10;6.15;;;;;;;31.30;47.19;96238.69;5253667;56;20129;-77
2021/08/15 08:59:25;;;;;;;9.13;6.30;;;;;;;32.13;45.56;96240.38;5263587;56;20328;-78
2021/08/15 09:04:28;;;;;;;6.13;5.15;;;;;;;32.51;44.80;96231.56;5263917;56;20126;-78
2021/08/15 09:09:30;;;;;;;7.78;5.18;;;;;;;32.90;41.17;96237.75;5263560;56;20134;-77
2021/08/15 09:14:33;;;;;;;6.13;5.03;;;;;;;33.06;44.46;96227.38;5253601;56;20117;-76
2021/08/15 09:19:46;;;;;;;8.68;5.80;;;;;;;32.85;43.21;96223.75;5228510;56;20231;-76
2021/08/15 09:24:55;;;;;;;11.90;5.85;;;;;;;32.40;45.17;96220.78;5245605;56;20135;-77
2021/08/15 09:30:08;;;;;;;6.15;5.55;;;;;;;33.21;42.75;96212.59;5234852;56;20112;-74
2021/08/15 09:35:16;;;;;;;7.03;5.78;;;;;;;32.71;41.41;96206.41;5241814;56;20121;-77
2021/08/15 09:40:21;;;;;;;8.48;6.45;;;;;;;33.56;41.19;96209.81;5241979;56;20139;-76
2021/08/15 09:45:36;;;;;;;10.38;6.03;;;;;;;32.92;43.08;96212.09;5247115;56;20107;-77
2021/08/15 09:50:38;;;;;;;6.72;5.60;;;;;;;33.21;46.65;96197.53;5249463;56;20125;-75
2021/08/15 09:55:45;;;;;;;9.82;6.40;;;;;;;32.77;43.78;96198.22;5259211;56;20679;-74
2021/08/15 10:00:48;;;;;;;8.57;5.97;;;;;;;32.75;44.73;96195.22;5263844;56;20130;-74
2021/08/15 10:05:51;;;;;;;8.13;6.10;;;;;;;32.69;43.59;96196.94;5276549;56;20400;-73
2021/08/15 10:10:54;;;;;;;10.75;5.10;;;;;;;33.77;46.08;96192.50;5275904;56;20129;-74
2021/08/15 10:16:09;;;;;;;6.30;5.60;;;;;;;33.17;42.49;96191.53;5263718;56;20607;-75
2021/08/15 10:21:20;;;;;;;8.63;5.35;;;;;;;33.94;42.34;96174.94;5253023;56;20116;-74
2021/08/15 10:26:25;;;;;;;8.38;5.93;;;;;;;34.77;43.23;96171.28;5266197;56;20121;-75
2021/08/15 10:32:05;;;;;;;9.00;5.63;;;;;;;35.01;41.79;96166.94;5267122;56;20116;-74
2021/08/15 10:37:27;;;;;;;8.00;5.07;;;;;;;35.19;40.35;96172.97;5260048;56;20112;-74
2021/08/15 10:42:39;;;;;;;7.25;5.50;;;;;;;34.65;40.19;96164.81;5262957;56;20107;-78
2021/08/15 10:47:41;;;;;;;8.30;5.35;;;;;;;33.56;42.59;96152.50;5264224;56;20231;-78
2021/08/15 10:52:44;;;;;;;7.97;5.47;;;;;;;34.49;43.89;96147.38;5242896;56;20591;-73
2021/08/15 10:57:52;;;;;;;13.30;5.85;;;;;;;34.30;41.56;96129.75;5231399;56;20125;-73
2021/08/15 11:02:57;;;;;;;8.57;5.50;;;;;;;33.46;42.24;96136.78;5241242;56;20147;-74
2021/08/15 11:07:59;;;;;;;7.75;5.80;;;;;;;33.25;41.15;96120.44;5260216;56;20155;-74
2021/08/15 11:13:19;;;;;;;5.60;4.97;;;;;;;34.65;41.86;96101.69;5255460;56;20679;-74
2021/08/15 11:18:21;;;;;;;7.20;5.55;;;;;;;33.62;43.27;96109.91;5260451;56;20134;-75
2021/08/15 11:23:27;;;;;;;9.32;5.57;;;;;;;34.29;41.47;96097.44;5251379;56;20120;-74
2021/08/15 11:28:29;;;;;;;15.02;5.32;;;;;;;33.42;42.51;96088.56;5260383;56;20116;-75
2021/08/15 11:33:32;;;;;;;9.70;6.18;;;;;;;32.74;43.43;96081.34;5260094;56;20158;-74
2021/08/15 11:38:34;;;;;;;10.82;5.65;;;;;;;32.90;44.54;96085.25;5261068;56;20135;-75
2021/08/15 11:43:37;;;;;;;7.10;4.90;;;;;;;32.89;44.58;96080.88;5263429;56;20164;-75
2021/08/15 11:48:39;;;;;;;8.73;5.63;;;;;;;33.87;45.61;96067.00;5261985;56;20116;-76
2021/08/15 11:53:44;;;;;;;10.43;5.32;;;;;;;33.39;45.42;96069.75;5265536;56;20121;-75
2021/08/15 11:58:50;;;;;;;9.70;5.63;;;;;;;34.52;45.18;96057.19;5247385;56;20130;-76
2021/08/15 12:03:58;;;;;;;9.63;5.95;;;;;;;34.07;40.67;96055.97;5244530;56;20144;-75
2021/08/15 12:09:01;;;;;;;8.52;5.32;;;;;;;33.94;41.30;96056.63;5244269;56;20121;-76
2021/08/15 12:14:12;;;;;;;7.80;5.53;;;;;;;33.53;42.72;96050.59;5240672;56;20161;-75
2021/08/15 12:19:26;;;;;;;9.90;5.68;;;;;;;34.19;41.70;96039.50;5233636;56;20134;-75
2021/08/15 12:24:30;;;;;;;12.70;5.75;;;;;;;34.29;41.91;96036.44;5241174;56;20221;-75
2021/08/15 12:29:43;;;;;;;10.25;5.57;;;;;;;34.71;41.00;96029.50;5244399;56;20121;-74
2021/08/15 12:35:05;;;;;;;12.77;5.53;;;;;;;34.83;43.49;96022.31;5246028;56;20717;-73
2021/08/15 12:40:12;;;;;;;9.13;5.55;;;;;;;34.89;39.46;96014.03;5255882;56;20129;-74
2021/08/15 12:45:32;;;;;;;8.32;5.03;;;;;;;35.74;42.50;95999.19;5263019;56;20670;-72
2021/08/15 12:50:35;;;;;;;7.95;5.45;;;;;;;36.21;40.79;95999.41;5262269;56;20125;-73
2021/08/15 12:55:39;;;;;;;9.52;5.35;;;;;;;34.64;42.11;96002.59;5260873;56;20164;-73
2021/08/15 13:00:44;;;;;;;12.52;5.18;;;;;;;35.46;40.33;96002.72;5260317;56;20656;-73
2021/08/15 13:05:48;;;;;;;8.70;5.88;;;;;;;34.20;42.20;95988.56;5237430;56;20685;-73
2021/08/15 13:10:50;;;;;;;7.28;5.28;;;;;;;33.99;41.11;95972.34;5257187;56;20116;-73
2021/08/15 13:15:54;;;;;;;7.30;5.18;;;;;;;34.39;40.11;95980.38;5262589;56;20134;-73
2021/08/15 13:20:56;;;;;;;8.70;5.20;;;;;;;34.69;40.80;95972.00;5259986;56;20230;-73
2021/08/15 13:25:59;;;;;;;8.20;5.55;;;;;;;34.88;39.92;95962.97;5262666;56;20111;-72
2021/08/15 13:31:04;;;;;;;9.70;4.95;;;;;;;34.39;41.44;95948.81;5262728;56;20134;-72
2021/08/15 13:36:07;;;;;;;8.55;5.22;;;;;;;33.34;41.42;95933.38;5242239;56;20108;-72
2021/08/15 13:41:10;;;;;;;7.15;4.90;;;;;;;32.98;41.67;95928.28;5247525;56;20701;-70
2021/08/15 13:46:12;;;;;;;8.05;5.40;;;;;;;33.38;44.27;95924.28;5257019;56;20116;-74
2021/08/15 13:51:15;;;;;;;8.98;5.22;;;;;;;33.06;44.97;95903.81;5245228;56;20125;-75
2021/08/15 13:56:17;;;;;;;13.25;5.35;;;;;;;33.33;45.00;95899.63;5263729;45;20275;-74
2021/08/15 14:01:20;;;;;;;9.82;5.15;;;;;;;32.65;45.15;95896.22;5253154;56;20122;-76
2021/08/15 14:06:38;;;;;;;8.10;5.13;;;;;;;32.46;47.77;95891.44;5247334;56;20117;-75
2021/08/15 14:11:54;;;;;;;12.70;5.53;;;;;;;32.13;46.50;95874.38;5243923;56;20134;-75
2021/08/15 14:16:58;;;;;;;8.13;5.47;;;;;;;31.84;46.96;95866.06;5257688;56;20206;-75
2021/08/15 14:22:02;;;;;;;10.55;5.20;;;;;;;31.71;47.45;95871.63;5264479;56;20117;-73
2021/08/15 14:27:21;;;;;;;;;;;;;;;31.33;51.73;95880.50;5245865;56;20104;-73
2021/08/15 14:32:40;;;;;;;9.77;5.28;;;;;;;31.13;46.91;95885.63;5241191;56;20005;-74
2021/08/15 14:37:55;;;;;;;;;;;;;;;30.89;51.11;95910.41;5239989;56;20205;-75
2021/08/15 14:43:11;;;;;;;8.70;5.55;;;;;;;30.29;49.65;95912.59;5256795;56;19957;-73
2021/08/15 14:48:27;;;;;;;9.07;4.95;;;;;;;29.72;48.56;95904.88;5240885;56;20164;-75
2021/08/15 14:53:43;;;;;;;10.05;5.40;;;;;;;29.47;49.47;95915.84;5227346;56;20118;-75
2021/08/15 14:58:59;;;;;;;9.30;5.43;;;;;;;29.29;50.84;95910.91;5238665;56;20144;-76
2021/08/15 15:04:14;;;;;;;7.45;5.72;;;;;;;29.11;51.29;95918.78;5216726;56;20088;-74
2021/08/15 15:09:31;;;;;;;13.35;5.50;;;;;;;28.94;52.32;95941.66;5204335;57;20123;-74
2021/08/15 15:14:34;;;;;;;15.52;5.53;;;;;;;28.56;50.48;95984.91;5213908;57;20128;-76
2021/08/15 15:19:37;;;;;;;10.18;3.13;;;;;;;27.09;46.29;96043.78;5224566;57;20128;-73
2021/08/15 15:24:40;;;;;;;12.18;2.72;;;;;;;25.28;60.78;96135.84;5230823;56;20112;-73
2021/08/15 15:29:43;;;;;;;10.20;4.00;;;;;;;22.22;78.77;96129.84;5243402;56;20223;-73
2021/08/15 15:34:45;;;;;;;10.80;3.88;;;;;;;21.74;82.59;96094.50;5239664;56;20107;-75
2021/08/15 15:39:47;;;;;;;9.63;3.40;;;;;;;21.54;87.46;96047.34;5243894;56;20105;-73
2021/08/15 15:44:50;;;;;;;7.65;3.47;;;;;;;21.24;87.83;95924.78;5246109;56;20107;-74
2021/08/15 15:49:52;;;;;;;7.70;3.70;;;;;;;21.32;87.56;95868.66;5242031;56;20225;-73
2021/08/15 15:54:55;;;;;;;7.40;3.25;;;;;;;21.54;87.22;95913.16;5243331;56;20246;-74
2021/08/15 15:59:57;;;;;;;10.15;3.30;;;;;;;21.54;85.47;95915.19;5221285;56;20130;-74
2021/08/15 16:04:59;;;;;;;10.32;3.47;;;;;;;21.34;86.36;95894.19;5234170;56;20180;-75
2021/08/15 16:10:07;;;;;;;10.95;3.63;;;;;;;21.91;87.25;95909.25;5240192;56;20113;-74
2021/08/15 16:15:10;;;;;;;10.15;3.47;;;;;;;22.60;83.39;95900.88;5241289;56;20117;-74
2021/08/15 16:20:13;;;;;;;6.53;3.80;;;;;;;23.36;83.06;95885.13;5233499;56;20134;-74
2021/08/15 16:25:15;;;;;;;7.22;3.20;;;;;;;24.00;77.18;95873.66;5240698;56;20108;-74
2021/08/15 16:30:18;;;;;;;6.97;3.22;;;;;;;23.90;78.45;95889.63;5238400;56;20454;-74
2021/08/15 16:35:20;;;;;;;6.20;3.17;;;;;;;23.82;79.15;95896.56;5240489;56;20153;-72
2021/08/15 16:40:23;;;;;;;9.82;3.83;;;;;;;24.28;78.36;95917.94;5234625;56;20716;-74
2021/08/15 16:45:25;;;;;;;7.18;3.10;;;;;;;24.47;79.16;95965.59;5237720;56;20251;-74
2021/08/15 16:50:27;;;;;;;9.90;4.30;;;;;;;24.28;80.39;95968.75;5237317;56;20101;-74
2021/08/15 16:55:30;;;;;;;10.15;4.00;;;;;;;23.74;82.65;95964.28;5236599;56;20131;-75
2021/08/15 17:00:32;;;;;;;8.70;4.00;;;;;;;23.68;83.17;95940.38;5229080;56;20118;-74
2021/08/15 17:05:40;;;;;;;9.75;4.18;;;;;;;23.43;83.90;95929.53;5235825;56;20689;-73
2021/08/15 17:10:42;;;;;;;9.85;3.92;;;;;;;23.54;84.63;95939.75;5237763;56;20131;-74
2021/08/15 17:15:46;;;;;;;7.97;4.40;;;;;;;23.78;84.68;95941.31;5237676;56;20119;-74
2021/08/15 17:20:49;;;;;;;6.97;3.90;;;;;;;23.23;84.34;95930.34;5237177;56;20149;-74
2021/08/15 17:25:51;;;;;;;7.55;3.92;;;;;;;23.34;83.36;95918.03;5237516;56;20110;-74
2021/08/15 17:30:54;;;;;;;9.70;4.35;;;;;;;23.18;84.49;95916.44;5237842;56;20161;-73
2021/08/15 17:35:57;;;;;;;3.42;3.13;;;;;;;23.01;82.83;95908.44;5228400;56;20122;-75
2021/08/15 17:41:00;;;;;;;6.82;3.55;;;;;;;22.87;82.73;95895.78;5237350;56;20328;-74
2021/08/15 17:46:05;;;;;;;6.43;3.67;;;;;;;22.71;84.50;95899.81;5237424;56;20118;-75
2021/08/15 17:51:08;;;;;;;6.60;3.13;;;;;;;22.70;84.55;95884.22;5238750;56;20096;-74
2021/08/15 17:56:14;;;;;;;3.80;3.35;;;;;;;22.42;87.16;95882.13;5236362;56;20161;-75
2021/08/15 18:01:19;;;;;;;7.78;3.40;;;;;;;22.53;85.39;95887.44;5232875;56;20122;-75
2021/08/15 18:06:23;;;;;;;5.22;3.40;;;;;;;22.10;87.50;95890.88;5234308;56;20312;-74
2021/08/15 18:11:29;;;;;;;5.07;3.47;;;;;;;22.23;87.29;95920.97;5239766;56;20654;-74
2021/08/15 18:16:34;;;;;;;4.55;3.70;;;;;;;22.02;88.08;95923.81;5235630;56;20227;-75
2021/08/15 18:21:37;;;;;;;4.80;3.20;;;;;;;21.81;89.76;95919.44;5236897;56;20118;-74
2021/08/15 18:26:39;;;;;;;3.97;3.50;;;;;;;21.67;89.89;95926.41;5234781;56;20167;-73
2021/08/15 18:31:45;;;;;;;6.35;3.67;;;;;;;21.58;90.91;95941.69;5225453;56;20122;-73
2021/08/15 18:36:48;;;;;;;4.25;3.67;;;;;;;21.66;90.85;95944.59;5235626;56;20146;-73
2021/08/15 18:41:54;;;;;;;3.95;3.33;;;;;;;21.64;91.20;95966.88;5234721;56;20127;-73
2021/08/15 18:46:56;;;;;;;10.93;3.63;;;;;;;21.68;91.23;95970.09;5236340;56;20122;-73
2021/08/15 18:51:59;;;;;;;5.28;3.90;;;;;;;21.70;91.22;95961.88;5239480;56;20122;-75
2021/08/15 18:57:02;;;;;;;5.90;3.80;;;;;;;21.54;91.81;95960.94;5241583;56;20122;-73
2021/08/15 19:37:21;;;;;;;3.70;3.08;;;;;;;21.24;92.39;95964.13;5194800;46;20116;-72
2021/08/15 19:42:23;;;;;;;7.80;3.83;;;;;;;21.09;92.27;95975.16;5174288;57;20209;-74
2021/08/15 19:47:29;;;;;;;5.72;3.50;;;;;;;21.07;92.56;95977.00;5182814;57;20133;-71
2021/08/15 19:52:44;;;;;;;5.88;3.92;;;;;;;20.93;92.88;95962.16;5182829;57;20129;-73
2021/08/15 19:57:50;;;;;;;6.28;3.92;;;;;;;21.03;92.83;95971.66;5191241;57;20164;-73
2021/08/15 20:02:54;;;;;;;4.25;3.85;;;;;;;20.92;92.92;95963.44;5194183;57;20506;-73
2021/08/15 20:07:56;;;;;;;7.47;3.83;;;;;;;20.83;92.57;95966.69;5194025;57;20133;-73
2021/08/15 20:12:59;;;;;;;7.45;4.20;;;;;;;20.78;92.54;95967.56;5191201;57;20120;-72
2021/08/15 20:18:01;;;;;;;5.47;3.95;;;;;;;20.63;93.14;95961.69;5193424;57;20198;-74
2021/08/15 20:23:04;;;;;;;5.95;4.50;;;;;;;20.57;93.49;95947.78;5191199;57;20142;-73
2021/08/15 20:28:06;;;;;;;8.00;4.43;;;;;;;20.57;93.98;95942.16;5189349;57;20166;-72
2021/08/15 20:33:09;;;;;;;8.35;3.83;;;;;;;20.51;93.65;95937.94;5191943;57;20567;-73
2021/08/15 20:38:11;;;;;;;7.43;4.43;;;;;;;20.57;93.65;95932.97;5190427;57;20106;-73
2021/08/15 20:43:14;;;;;;;4.30;3.80;;;;;;;20.62;93.84;95932.88;5192378;57;20129;-74
2021/08/15 20:48:16;;;;;;;9.40;4.05;;;;;;;20.56;93.39;95923.03;5190005;57;20210;-72
2021/08/15 20:53:18;;;;;;;6.65;3.97;;;;;;;20.53;93.83;95918.50;5193074;57;20142;-72
2021/08/15 20:58:21;;;;;;;4.90;3.70;;;;;;;20.54;93.14;95920.78;5197901;57;20115;-75
2021/08/15 21:03:24;;;;;;;8.63;4.20;;;;;;;20.41;92.85;95920.75;5187182;57;20141;-71
2021/08/15 21:08:26;;;;;;;7.28;4.32;;;;;;;20.34;93.47;95929.81;5194634;57;20168;-73
2021/08/15 21:13:29;;;;;;;7.78;4.30;;;;;;;20.56;93.14;95923.78;5190119;57;20115;-73
2021/08/15 21:18:32;;;;;;;8.02;4.03;;;;;;;20.45;93.79;95926.03;5192450;57;20623;-73
2021/08/15 21:23:35;;;;;;;6.22;4.30;;;;;;;20.45;93.03;95932.41;5189720;57;20128;-74
2021/08/15 21:28:37;;;;;;;10.32;4.05;;;;;;;20.49;92.60;95918.81;5190888;57;20116;-73
2021/08/15 21:33:40;;;;;;;10.65;4.55;;;;;;;20.38;93.36;95909.84;5190981;57;20207;-73
2021/08/15 21:38:42;;;;;;;5.93;4.60;;;;;;;20.41;93.81;95897.53;5171924;57;20132;-73
2021/08/15 21:43:45;;;;;;;5.47;4.53;;;;;;;20.47;93.79;95906.63;5187572;57;20230;-73
2021/08/15 21:48:47;;;;;;;5.75;4.43;;;;;;;20.38;94.39;95910.59;5188079;57;20124;-73
2021/08/15 21:53:50;;;;;;;11.77;4.50;;;;;;;20.44;93.50;95927.34;5189767;57;20153;-72
2021/08/15 21:58:52;;;;;;;5.00;4.13;;;;;;;20.53;92.96;95921.31;5178321;57;20441;-72
2021/08/15 22:03:54;;;;;;;6.40;4.60;;;;;;;20.29;94.25;95927.09;5189171;57;20120;-73
2021/08/15 22:08:57;;;;;;;10.68;4.63;;;;;;;20.30;94.02;95923.78;5190120;57;20107;-72
2021/08/15 22:13:59;;;;;;;10.38;4.30;;;;;;;20.27;94.20;95918.44;5189234;57;20378;-73
2021/08/15 22:19:01;;;;;;;4.47;4.07;;;;;;;20.24;93.89;95919.53;5191865;57;20102;-73
2021/08/15 22:24:05;;;;;;;6.43;4.93;;;;;;;20.22;94.27;95910.91;5195999;57;20094;-73
2021/08/15 22:29:13;;;;;;;4.85;4.13;;;;;;;20.20;94.41;95899.41;5192481;57;20142;-72
2021/08/15 22:34:18;;;;;;;5.32;4.40;;;;;;;20.18;94.21;95907.63;5185384;57;20115;-72
2021/08/15 22:39:20;;;;;;;7.43;4.43;;;;;;;19.99;94.90;95905.63;5190967;57;20204;-72
2021/08/15 22:44:23;;;;;;;5.93;4.38;;;;;;;19.96;95.43;95898.28;5188243;57;20125;-72
2021/08/15 22:49:25;;;;;;;10.48;4.80;;;;;;;19.93;95.21;95890.94;5180982;57;20146;-72
2021/08/15 22:54:27;;;;;;;8.80;4.45;;;;;;;19.93;95.46;95881.75;5198306;57;20402;-72
2021/08/15 22:59:30;;;;;;;6.65;3.83;;;;;;;19.86;95.00;95874.75;5194027;57;20115;-72
2021/08/15 23:04:33;;;;;;;6.43;4.25;;;;;;;19.83;95.66;95881.41;5186596;57;20677;-72
2021/08/15 23:09:35;;;;;;;5.30;4.13;;;;;;;19.88;95.68;95877.00;5190432;57;20697;-72
2021/08/15 23:14:37;;;;;;;4.72;4.10;;;;;;;19.91;95.41;95865.50;5194539;57;20216;-73
2021/08/15 23:19:40;;;;;;;7.72;4.28;;;;;;;19.95;94.84;95860.31;5196089;57;20216;-73
2021/08/15 23:24:42;;;;;;;5.60;3.90;;;;;;;19.90;95.51;95854.81;5193166;57;20194;-73
2021/08/15 23:29:44;;;;;;;4.43;4.00;;;;;;;19.92;95.20;95860.63;5195348;57;20133;-73
2021/08/15 23:34:47;;;;;;;8.68;5.03;;;;;;;19.89;95.57;95873.69;5196390;57;20178;-74
2021/08/15 23:39:49;;;;;;;12.82;4.35;;;;;;;19.78;95.93;95893.50;5199314;57;20128;-73
2021/08/15 23:44:52;;;;;;;8.10;4.70;;;;;;;19.73;97.67;95859.91;5199101;57;20141;-73
2021/08/15 23:49:54;;;;;;;9.43;4.20;;;;;;;19.79;97.33;95885.81;5192016;57;20102;-73
2021/08/15 23:54:57;;;;;;;9.50;4.70;;;;;;;19.97;96.71;95888.56;5200038;57;20138;-73
2021/08/15 23:59:59;;;;;;;6.65;3.92;;;;;;;19.94;96.28;95880.50;5204038;57;20133;-73
